Time;durP1;ratioP1;P1;durP2;ratioP2;P2;SDS_P1;SDS_P2;PMS_P1;PMS_P2;Temp;Humidity;BMP_temperature;BMP_pressure;BME280_temperature;BME280_humidity;BME280_pressure;Samples;Min_cycle;Max_cycle;Signal;HPM_P1;HPM_P2
2023/07/04 00:01:23;;;;;;;7.65;2.17;;;12.00;99.90;;;;;;5110395;27;20158;-38
2023/07/04 00:03:54;;;;;;;4.43;2.55;;;12.00;99.90;;;;;;5126590;27;20057;-38
2023/07/04 00:06:22;;;;;;;8.18;2.05;;;11.90;99.90;;;;;;5134266;27;20729;-38
2023/07/04 00:08:50;;;;;;;4.10;2.05;;;11.90;99.90;;;;;;5110625;28;20464;-38
2023/07/04 00:11:19;;;;;;;7.88;2.28;;;11.90;99.90;;;;;;5113484;27;20047;-38
2023/07/04 00:13:45;;;;;;;13.23;2.47;;;11.90;99.90;;;;;;5113589;27;20529;-38
2023/07/04 00:16:13;;;;;;;5.95;2.42;;;11.80;99.90;;;;;;5113833;27;20061;-38
2023/07/04 00:18:40;;;;;;;9.70;2.05;;;11.80;99.90;;;;;;5113127;27;20120;-38
2023/07/04 00:21:13;;;;;;;9.90;2.70;;;11.70;99.90;;;;;;5113496;27;20288;-38
2023/07/04 00:23:42;;;;;;;5.57;2.05;;;11.80;99.90;;;;;;5094985;28;20058;-38
2023/07/04 00:26:08;;;;;;;8.85;2.17;;;11.80;99.90;;;;;;5113612;27;20053;-38
2023/07/04 00:28:38;;;;;;;6.65;2.58;;;11.70;99.90;;;;;;5112512;27;20187;-38
2023/07/04 00:31:04;;;;;;;6.60;2.30;;;11.70;99.90;;;;;;5112887;27;20104;-38
2023/07/04 00:33:30;;;;;;;8.05;2.20;;;11.70;99.90;;;;;;5114540;27;20043;-38
2023/07/04 00:36:03;;;;;;;5.93;2.28;;;11.60;99.90;;;;;;5110708;27;20485;-38
2023/07/04 00:38:32;;;;;;;8.27;2.22;;;11.60;99.90;;;;;;5103840;27;20066;-38
2023/07/04 00:41:03;;;;;;;9.45;2.40;;;11.60;99.90;;;;;;5117599;27;20883;-38
2023/07/04 00:44:00;;;;;;;6.38;2.42;;;11.60;99.90;;;;;;5109814;27;20070;-38
2023/07/04 00:46:43;;;;;;;9.10;3.08;;;11.60;99.90;;;;;;5117657;27;20062;-38
2023/07/04 00:49:20;;;;;;;12.27;2.40;;;11.60;99.90;;;;;;5116916;27;20394;-38
2023/07/04 00:52:04;;;;;;;7.68;2.60;;;11.60;99.90;;;;;;5099162;27;20300;-39
2023/07/04 00:54:43;;;;;;;9.05;2.67;;;11.70;99.90;;;;;;5098333;27;20544;-38
2023/07/04 00:57:10;;;;;;;8.27;2.50;;;11.80;99.90;;;;;;5116965;27;20051;-38
2023/07/04 00:59:45;;;;;;;7.65;2.50;;;11.90;99.90;;;;;;5117542;27;20050;-38
2023/07/04 01:02:12;;;;;;;8.75;2.83;;;11.90;99.90;;;;;;5117312;27;20062;-38
2023/07/04 01:04:39;;;;;;;7.88;1.95;;;11.90;99.90;;;;;;5116771;27;20401;-38
2023/07/04 01:07:15;;;;;;;7.35;2.35;;;11.90;99.90;;;;;;5116241;27;20158;-38
2023/07/04 01:09:44;;;;;;;7.60;2.40;;;12.00;99.90;;;;;;5116376;27;20077;-38
2023/07/04 01:12:13;;;;;;;7.07;2.33;;;12.00;99.90;;;;;;5117322;27;20047;-39
2023/07/04 01:14:39;;;;;;;7.40;2.10;;;12.10;99.90;;;;;;5116419;27;20050;-38
2023/07/04 01:17:08;;;;;;;11.13;2.80;;;12.10;99.90;;;;;;5116255;27;20401;-38
2023/07/04 01:19:38;;;;;;;7.47;3.03;;;12.10;99.90;;;;;;5116254;27;20043;-38
2023/07/04 01:22:33;;;;;;;4.97;2.28;;;12.20;99.90;;;;;;5115720;27;20078;-38
2023/07/04 01:25:14;;;;;;;9.57;2.80;;;12.20;99.90;;;;;;5116449;27;20526;-38
2023/07/04 01:27:43;;;;;;;9.43;2.90;;;12.30;99.90;;;;;;5115850;27;20082;-38
2023/07/04 01:30:10;;;;;;;7.00;2.50;;;12.30;99.90;;;;;;5116301;27;20479;-38
2023/07/04 01:32:36;;;;;;;6.68;2.58;;;12.30;99.90;;;;;;5115921;27;20075;-38
2023/07/04 01:35:04;;;;;;;7.30;2.47;;;12.40;99.90;;;;;;5107293;27;20484;-38
2023/07/04 01:37:30;;;;;;;7.97;3.60;;;12.40;99.90;;;;;;5112610;27;20060;-38
2023/07/04 01:39:57;;;;;;;8.25;2.60;;;12.40;99.90;;;;;;5135482;27;20133;-38
2023/07/04 01:42:23;;;;;;;4.38;2.10;;;12.40;99.90;;;;;;5137240;27;20061;-38
2023/07/04 01:44:49;;;;;;;6.80;2.70;;;12.40;99.90;;;;;;5109037;27;20293;-38
2023/07/04 01:47:15;;;;;;;5.47;2.30;;;12.40;99.90;;;;;;5136375;27;20047;-38
2023/07/04 01:49:40;;;;;;;8.43;2.70;;;12.50;99.90;;;;;;5136817;27;20083;-38
2023/07/04 01:52:06;;;;;;;6.72;2.22;;;12.50;99.90;;;;;;5117673;27;20058;-38
2023/07/04 01:54:32;;;;;;;5.45;2.00;;;12.50;99.90;;;;;;5136306;27;20400;-38
2023/07/04 01:56:58;;;;;;;10.55;2.75;;;12.50;99.90;;;;;;5136553;27;20086;-38
2023/07/04 01:59:23;;;;;;;7.93;2.50;;;12.50;99.90;;;;;;5136386;27;20043;-38
2023/07/04 02:01:49;;;;;;;7.95;2.67;;;12.50;99.90;;;;;;5110671;27;20039;-38
2023/07/04 02:04:15;;;;;;;9.07;2.42;;;12.50;99.90;;;;;;5135089;27;20133;-38
2023/07/04 02:06:41;;;;;;;4.72;1.70;;;12.50;99.90;;;;;;5133984;27;20799;-38
2023/07/04 02:09:07;;;;;;;7.53;2.35;;;12.60;99.90;;;;;;5135875;27;20130;-38
2023/07/04 02:11:33;;;;;;;3.88;1.73;;;12.60;99.90;;;;;;5136034;27;20110;-38
2023/07/04 02:14:00;;;;;;;5.10;1.80;;;12.60;99.90;;;;;;5118107;27;20108;-39
2023/07/04 02:16:26;;;;;;;6.80;2.83;;;12.60;99.90;;;;;;5136207;27;20146;-38
2023/07/04 02:18:52;;;;;;;7.20;1.90;;;12.60;99.90;;;;;;5114956;27;20505;-38
2023/07/04 02:21:18;;;;;;;3.33;1.85;;;12.60;99.90;;;;;;5097330;27;20058;-39
2023/07/04 02:23:44;;;;;;;4.85;1.90;;;12.60;99.90;;;;;;5114365;27;20047;-38
2023/07/04 02:26:11;;;;;;;7.90;2.00;;;12.60;99.90;;;;;;5115094;27;20043;-38
2023/07/04 02:28:39;;;;;;;7.03;1.80;;;12.60;99.90;;;;;;5096577;27;20568;-38
2023/07/04 02:31:05;;;;;;;6.85;1.95;;;12.60;99.90;;;;;;5115393;27;20046;-38
2023/07/04 02:33:31;;;;;;;5.50;1.90;;;12.60;99.90;;;;;;5115286;27;20054;-38
2023/07/04 02:35:57;;;;;;;5.15;2.53;;;12.60;99.90;;;;;;5106021;27;20479;-38
2023/07/04 02:38:23;;;;;;;4.72;1.52;;;12.50;99.90;;;;;;5109884;27;20412;-38
2023/07/04 02:40:51;;;;;;;5.13;2.05;;;12.50;99.90;;;;;;5114979;27;20051;-39
2023/07/04 02:43:17;;;;;;;5.55;2.22;;;12.50;99.90;;;;;;5107584;27;20516;-38
2023/07/04 02:45:43;;;;;;;12.05;2.47;;;12.50;99.90;;;;;;5121857;27;20095;-38
2023/07/04 02:48:09;;;;;;;6.53;2.03;;;12.50;99.90;;;;;;5135196;27;20043;-38
2023/07/04 02:50:35;;;;;;;6.20;2.30;;;12.50;99.90;;;;;;5135517;27;20450;-38
2023/07/04 02:53:01;;;;;;;7.25;1.98;;;12.50;99.90;;;;;;5135788;27;20042;-43
2023/07/04 02:55:27;;;;;;;4.18;2.05;;;12.50;99.90;;;;;;5135640;27;20046;-38
2023/07/04 02:57:53;;;;;;;2.78;1.60;;;12.50;99.90;;;;;;5135708;27;20193;-38
2023/07/04 03:00:18;;;;;;;4.35;2.55;;;12.30;99.90;;;;;;5103589;27;20059;-38
2023/07/04 03:02:44;;;;;;;6.18;2.10;;;12.30;99.90;;;;;;5114427;27;20158;-38
2023/07/04 03:05:11;;;;;;;5.10;2.38;;;12.20;99.90;;;;;;5114659;27;20116;-38
2023/07/04 03:07:36;;;;;;;7.43;2.20;;;12.10;99.90;;;;;;5114227;27;20055;-38
2023/07/04 03:10:02;;;;;;;4.93;1.80;;;12.10;99.90;;;;;;5096281;27;20154;-38
2023/07/04 03:12:28;;;;;;;3.85;2.10;;;12.10;99.90;;;;;;5113778;27;20051;-38
2023/07/04 03:14:53;;;;;;;5.13;1.73;;;12.00;99.90;;;;;;5114878;27;20051;-38
2023/07/04 03:17:19;;;;;;;4.55;1.85;;;12.10;99.90;;;;;;5096017;27;20050;-38
2023/07/04 03:19:45;;;;;;;4.88;2.10;;;12.10;99.90;;;;;;5114277;27;20058;-38
2023/07/04 03:22:10;;;;;;;6.90;2.13;;;12.10;99.90;;;;;;5114165;27;20070;-38
2023/07/04 03:24:36;;;;;;;4.43;1.88;;;12.10;99.90;;;;;;5113555;27;20142;-38
2023/07/04 03:27:02;;;;;;;5.13;2.00;;;12.20;99.90;;;;;;5119048;27;20047;-38
2023/07/04 03:29:27;;;;;;;5.15;2.20;;;12.20;99.90;;;;;;5134849;27;20055;-38
2023/07/04 03:31:53;;;;;;;6.15;2.47;;;12.30;99.90;;;;;;5119631;27;20412;-38
2023/07/04 03:34:19;;;;;;;4.38;2.03;;;12.30;99.90;;;;;;5116772;27;20050;-38
2023/07/04 03:36:44;;;;;;;8.25;2.60;;;12.30;99.90;;;;;;5108390;27;20085;-38
2023/07/04 03:39:11;;;;;;;9.02;2.65;;;12.40;99.90;;;;;;5122990;27;20497;-39
2023/07/04 03:41:36;;;;;;;7.70;2.60;;;12.40;99.90;;;;;;5134006;27;20051;-38
2023/07/04 03:44:02;;;;;;;4.97;2.20;;;12.40;99.90;;;;;;5135297;27;20050;-38
2023/07/04 03:46:28;;;;;;;5.68;2.22;;;12.40;99.90;;;;;;5116515;27;20046;-38
2023/07/04 03:48:54;;;;;;;5.70;2.40;;;12.40;99.90;;;;;;5135237;27;20100;-38
2023/07/04 03:51:19;;;;;;;6.25;2.70;;;12.40;99.90;;;;;;5128993;27;20055;-38
2023/07/04 03:53:45;;;;;;;5.45;2.60;;;12.40;99.90;;;;;;5089135;27;20469;-38
2023/07/04 03:56:11;;;;;;;5.70;2.40;;;12.40;99.90;;;;;;5133946;27;20269;-38
2023/07/04 03:58:36;;;;;;;4.68;2.00;;;12.30;99.90;;;;;;5134336;27;20057;-38
2023/07/04 04:01:06;;;;;;;8.88;3.03;;;12.30;99.90;;;;;;5103465;27;20351;-38
2023/07/04 04:03:37;;;;;;;6.22;2.45;;;12.30;99.90;;;;;;5105274;27;20134;-38
2023/07/04 04:06:07;;;;;;;7.90;2.72;;;12.30;99.90;;;;;;5111778;27;20043;-38
2023/07/04 04:08:33;;;;;;;8.18;2.75;;;12.30;99.90;;;;;;5116053;27;20468;-38
2023/07/04 04:10:59;;;;;;;4.75;2.20;;;12.30;99.90;;;;;;5101451;27;20062;-38
2023/07/04 04:13:25;;;;;;;5.43;2.30;;;12.30;99.90;;;;;;5119831;27;20146;-38
2023/07/04 04:15:51;;;;;;;4.30;2.78;;;12.30;99.90;;;;;;5121114;27;20039;-38
2023/07/04 04:18:18;;;;;;;7.00;2.28;;;12.40;99.90;;;;;;5120256;27;20699;-38
2023/07/04 04:20:43;;;;;;;6.35;2.30;;;12.40;99.90;;;;;;5101768;27;20043;-38
2023/07/04 04:23:10;;;;;;;9.50;2.28;;;12.50;99.90;;;;;;5119649;27;20365;-38
2023/07/04 04:25:38;;;;;;;9.35;2.75;;;12.60;99.90;;;;;;5119800;27;20051;-38
2023/07/04 04:28:04;;;;;;;8.18;2.50;;;12.80;99.90;;;;;;5119408;27;20084;-38
2023/07/04 04:30:30;;;;;;;6.97;2.42;;;13.00;99.90;;;;;;5120164;27;20535;-38
2023/07/04 04:32:56;;;;;;;5.70;1.95;;;13.20;99.90;;;;;;5119849;27;20047;-38
2023/07/04 04:35:21;;;;;;;7.78;2.33;;;13.90;99.90;;;;;;5111846;27;20043;-39
2023/07/04 04:37:47;;;;;;;6.85;1.70;;;14.40;99.90;;;;;;5096358;27;20138;-39
2023/07/04 04:40:13;;;;;;;5.05;1.70;;;14.50;99.90;;;;;;5120725;27;20498;-38
2023/07/04 04:42:39;;;;;;;5.35;2.20;;;14.40;99.90;;;;;;5117766;27;20047;-38
2023/07/04 04:45:07;;;;;;;4.20;1.85;;;14.40;99.90;;;;;;5089135;27;20043;-39
2023/07/04 04:47:33;;;;;;;10.27;2.00;;;14.20;99.90;;;;;;5120087;27;20167;-39
2023/07/04 04:50:21;;;;;;;5.47;1.85;;;14.20;99.90;;;;;;5119914;27;20038;-39
2023/07/04 04:52:47;;;;;;;11.25;2.30;;;14.20;99.90;;;;;;5119758;27;20070;-39
2023/07/04 04:55:14;;;;;;;5.18;1.67;;;14.20;99.90;;;;;;5120598;27;20201;-39
2023/07/04 04:57:39;;;;;;;7.28;1.80;;;14.20;99.90;;;;;;5119535;27;20397;-38
2023/07/04 05:00:06;;;;;;;6.00;1.65;;;14.20;99.90;;;;;;5120540;27;20054;-38
2023/07/04 05:02:32;;;;;;;7.88;2.10;;;14.20;99.90;;;;;;5119794;27;20468;-38
2023/07/04 05:05:01;;;;;;;8.48;1.52;;;14.30;99.90;;;;;;5119909;27;20139;-38
2023/07/04 05:07:28;;;;;;;4.68;1.35;;;14.30;99.90;;;;;;5084387;27;20073;-39
2023/07/04 05:09:55;;;;;;;8.52;1.50;;;14.40;99.90;;;;;;5120856;27;20366;-39
2023/07/04 05:12:21;;;;;;;5.90;1.55;;;14.50;99.90;;;;;;5120035;27;20058;-39
2023/07/04 05:14:47;;;;;;;6.35;1.58;;;14.50;99.90;;;;;;5120218;27;20160;-39
2023/07/04 05:17:13;;;;;;;7.43;1.60;;;14.60;99.90;;;;;;5100406;27;20059;-38
2023/07/04 05:19:38;;;;;;;8.13;1.75;;;14.60;99.90;;;;;;5117201;27;20465;-39
2023/07/04 05:22:04;;;;;;;7.50;1.67;;;14.70;99.90;;;;;;5116562;27;20538;-38
2023/07/04 05:24:31;;;;;;;6.55;1.70;;;14.70;99.90;;;;;;5116555;27;20479;-42
2023/07/04 05:26:56;;;;;;;8.90;2.05;;;15.10;99.90;;;;;;5115796;27;20047;-39
2023/07/04 05:29:22;;;;;;;6.78;1.60;;;15.50;99.90;;;;;;5117116;27;20500;-39
2023/07/04 05:31:48;;;;;;;7.28;1.73;;;16.50;99.90;;;;;;5081236;27;20055;-39
2023/07/04 05:34:14;;;;;;;5.53;1.70;;;17.10;99.90;;;;;;5111780;27;20558;-39
2023/07/04 05:36:39;;;;;;;4.40;1.48;;;17.10;99.90;;;;;;5092076;27;20418;-39
2023/07/04 05:39:06;;;;;;;8.20;2.33;;;16.90;99.90;;;;;;5112871;27;20100;-39
2023/07/04 05:41:34;;;;;;;5.95;1.63;;;17.00;99.90;;;;;;5116946;27;20103;-39
2023/07/04 05:44:03;;;;;;;5.90;1.75;;;16.90;99.90;;;;;;5084481;28;20090;-39
2023/07/04 05:46:29;;;;;;;7.28;1.42;;;16.70;99.90;;;;;;5114898;27;20542;-39
2023/07/04 05:48:56;;;;;;;4.70;1.80;;;16.60;99.90;;;;;;5079902;27;20184;-39
2023/07/04 05:51:22;;;;;;;6.72;1.50;;;16.60;99.90;;;;;;5116327;27;20081;-39
2023/07/04 05:53:49;;;;;;;6.45;2.33;;;16.50;99.90;;;;;;5116037;27;20047;-38
2023/07/04 05:56:18;;;;;;;6.00;1.83;;;16.50;99.90;;;;;;5116463;27;20107;-39
2023/07/04 05:58:46;;;;;;;4.63;1.92;;;16.50;99.90;;;;;;5115344;27;20489;-38
2023/07/04 06:01:22;;;;;;;4.50;2.00;;;16.80;99.90;;;;;;5113011;27;21039;-38
2023/07/04 06:03:48;;;;;;;7.70;1.85;;;17.40;99.90;;;;;;5136324;27;20046;-38
2023/07/04 06:06:22;;;;;;;4.93;1.70;;;17.90;99.90;;;;;;5136555;27;20086;-39
2023/07/04 06:08:49;;;;;;;5.43;1.75;;;17.90;99.90;;;;;;5135797;27;20138;-38
2023/07/04 06:11:16;;;;;;;5.55;1.42;;;17.90;99.90;;;;;;5136551;27;20125;-39
2023/07/04 06:13:45;;;;;;;9.95;1.98;;;17.90;99.90;;;;;;5134794;27;20065;-39
2023/07/04 06:16:10;;;;;;;6.00;1.42;;;18.00;99.90;;;;;;5136095;27;20042;-39
2023/07/04 06:18:37;;;;;;;8.10;1.70;;;17.60;99.90;;;;;;5136087;27;20523;-39
2023/07/04 06:21:07;;;;;;;5.03;1.80;;;17.30;99.90;;;;;;5124168;27;20130;-39
2023/07/04 06:23:32;;;;;;;6.13;1.75;;;17.10;99.90;;;;;;5114867;27;20281;-39
2023/07/04 06:25:58;;;;;;;5.53;1.52;;;17.00;99.90;;;;;;5097110;27;20073;-38
2023/07/04 06:28:25;;;;;;;8.88;2.15;;;17.20;99.90;;;;;;5114753;27;20050;-38
2023/07/04 06:30:50;;;;;;;9.48;2.20;;;17.40;99.90;;;;;;5116223;27;20080;-39
2023/07/04 06:33:16;;;;;;;4.63;1.83;;;17.70;99.90;;;;;;5115392;27;20362;-39
2023/07/04 06:35:42;;;;;;;4.43;1.90;;;17.50;99.90;;;;;;5087523;27;20548;-39
2023/07/04 06:38:11;;;;;;;4.68;1.50;;;17.50;99.90;;;;;;5111500;27;20540;-38
2023/07/04 06:40:37;;;;;;;4.00;1.65;;;17.30;99.90;;;;;;5115863;27;20050;-39
2023/07/04 06:43:05;;;;;;;6.65;1.67;;;17.10;99.90;;;;;;5110620;27;20508;-39
2023/07/04 06:45:35;;;;;;;6.28;1.80;;;17.20;99.90;;;;;;5106757;27;20046;-39
2023/07/04 06:48:01;;;;;;;7.15;1.80;;;17.40;99.90;;;;;;5096529;27;20058;-39
2023/07/04 06:50:28;;;;;;;7.47;1.50;;;17.50;99.90;;;;;;5115891;27;20500;-38
2023/07/04 06:52:54;;;;;;;3.85;1.50;;;17.70;99.90;;;;;;5114929;27;20431;-39
2023/07/04 06:55:21;;;;;;;5.07;1.52;;;17.90;99.90;;;;;;5115468;27;20050;-39
2023/07/04 06:57:47;;;;;;;5.47;1.88;;;17.90;99.90;;;;;;5115021;27;20490;-39
2023/07/04 07:00:13;;;;;;;4.22;1.90;;;17.90;99.90;;;;;;5115304;27;20049;-39
2023/07/04 07:02:38;;;;;;;8.48;1.90;;;17.90;99.90;;;;;;5113843;27;20504;-39
2023/07/04 07:05:05;;;;;;;6.82;1.92;;;17.70;99.90;;;;;;5115279;27;20050;-39
2023/07/04 07:07:31;;;;;;;5.80;1.60;;;17.70;99.90;;;;;;5095081;27;20369;-39
2023/07/04 07:09:56;;;;;;;7.38;2.15;;;17.80;99.90;;;;;;5115213;27;20127;-39
2023/07/04 07:12:22;;;;;;;6.93;1.77;;;18.30;99.90;;;;;;5114684;27;20047;-39
2023/07/04 07:14:48;;;;;;;7.70;1.98;;;18.30;99.90;;;;;;5115312;27;20078;-39
2023/07/04 07:17:13;;;;;;;8.63;1.90;;;18.40;99.90;;;;;;5114203;27;20051;-39
2023/07/04 07:19:40;;;;;;;5.78;1.60;;;18.10;99.90;;;;;;5114807;27;20073;-39
2023/07/04 07:22:06;;;;;;;6.30;2.05;;;17.90;99.90;;;;;;5096359;27;20082;-39
2023/07/04 07:24:31;;;;;;;7.40;2.30;;;18.10;99.90;;;;;;5114453;27;20137;-39
2023/07/04 07:26:58;;;;;;;5.97;2.45;;;18.30;99.90;;;;;;5114582;27;20441;-39
2023/07/04 07:29:24;;;;;;;9.10;2.15;;;18.50;99.90;;;;;;5115063;27;20055;-39
2023/07/04 07:31:50;;;;;;;7.32;1.60;;;18.80;99.90;;;;;;5116001;27;20047;-39
2023/07/04 07:34:17;;;;;;;5.78;1.70;;;18.90;99.90;;;;;;5109783;27;20039;-39
2023/07/04 07:36:44;;;;;;;8.25;2.50;;;18.80;99.90;;;;;;5090195;27;20051;-39
2023/07/04 07:39:16;;;;;;;9.55;2.20;;;18.70;99.90;;;;;;5109593;27;20053;-39
2023/07/04 07:41:47;;;;;;;6.15;1.77;;;18.40;99.90;;;;;;5114862;27;20845;-39
2023/07/04 07:44:14;;;;;;;11.80;3.10;;;18.30;99.90;;;;;;5099806;27;20044;-39
2023/07/04 07:46:41;;;;;;;5.97;2.10;;;18.20;99.90;;;;;;5113747;27;20133;-40
2023/07/04 07:49:07;;;;;;;6.65;2.10;;;18.30;99.90;;;;;;5114684;27;20047;-39
2023/07/04 07:51:33;;;;;;;7.55;2.22;;;18.30;99.90;;;;;;5114590;27;20058;-39
2023/07/04 07:54:00;;;;;;;9.07;2.47;;;18.10;99.90;;;;;;5113405;27;20057;-39
2023/07/04 07:56:32;;;;;;;6.38;2.03;;;18.10;99.90;;;;;;5078579;27;20051;-39
2023/07/04 07:58:58;;;;;;;8.80;2.33;;;18.20;99.90;;;;;;5104752;27;20035;-39
2023/07/04 08:01:30;;;;;;;9.80;2.40;;;18.30;99.90;;;;;;5058764;28;20180;-40
2023/07/04 08:03:57;;;;;;;7.38;2.65;;;18.30;99.90;;;;;;5112949;27;20751;-40
2023/07/04 08:06:29;;;;;;;8.48;3.15;;;18.30;99.90;;;;;;5106993;27;20758;-40
2023/07/04 08:08:56;;;;;;;9.10;3.17;;;18.20;99.90;;;;;;5104865;27;20039;-39
2023/07/04 08:11:22;;;;;;;8.80;2.92;;;18.10;99.90;;;;;;5106765;27;20051;-40
2023/07/04 08:13:49;;;;;;;11.23;2.78;;;18.10;99.90;;;;;;5104267;27;20039;-40
2023/07/04 08:16:19;;;;;;;8.93;2.55;;;18.40;99.90;;;;;;5091118;27;20044;-40
2023/07/04 08:18:45;;;;;;;9.90;2.92;;;18.60;99.90;;;;;;5092940;27;20043;-39
2023/07/04 08:21:10;;;;;;;9.65;3.03;;;18.60;99.90;;;;;;5105021;27;20386;-39
2023/07/04 08:23:36;;;;;;;10.43;3.05;;;18.80;99.90;;;;;;5105991;27;20047;-40
2023/07/04 08:26:02;;;;;;;11.13;3.40;;;18.80;99.90;;;;;;5106878;27;20042;-39
2023/07/04 08:28:27;;;;;;;12.70;3.22;;;18.80;99.90;;;;;;5093825;27;20050;-39
2023/07/04 08:30:53;;;;;;;10.07;3.05;;;18.80;99.90;;;;;;5095401;27;20443;-40
2023/07/04 08:33:19;;;;;;;9.95;3.22;;;18.70;99.90;;;;;;5108039;27;21195;-40
2023/07/04 08:35:56;;;;;;;11.60;3.85;;;18.60;99.90;;;;;;5063142;28;20112;-39
2023/07/04 08:38:21;;;;;;;12.93;4.13;;;18.70;99.90;;;;;;5100679;27;20104;-40
2023/07/04 08:40:47;;;;;;;13.98;3.85;;;18.60;99.90;;;;;;5099723;27;20047;-39
2023/07/04 08:43:13;;;;;;;10.80;3.33;;;18.40;99.90;;;;;;5092742;27;20123;-39
2023/07/04 08:45:40;;;;;;;14.23;3.50;;;18.40;99.90;;;;;;5094733;27;20576;-39
2023/07/04 08:48:06;;;;;;;13.07;3.60;;;18.50;99.90;;;;;;5104920;27;20058;-39
2023/07/04 08:50:37;;;;;;;7.70;3.13;;;18.60;99.90;;;;;;5100111;27;20043;-39
2023/07/04 08:53:10;;;;;;;14.15;3.30;;;18.80;99.90;;;;;;5107200;27;20048;-40
2023/07/04 08:55:59;;;;;;;10.15;2.97;;;19.00;99.90;;;;;;5104219;27;20085;-40
2023/07/04 08:58:34;;;;;;;16.25;4.85;;;19.40;99.90;;;;;;5108259;27;20035;-39
2023/07/04 09:01:10;;;;;;;11.63;3.80;;;19.50;99.90;;;;;;5086855;28;20055;-40
2023/07/04 09:03:38;;;;;;;14.13;3.70;;;19.90;99.90;;;;;;5097051;27;20579;-40
2023/07/04 09:06:23;;;;;;;11.75;3.25;;;19.90;99.90;;;;;;5078977;28;20042;-40
2023/07/04 09:09:09;;;;;;;12.70;2.90;;;20.20;99.90;;;;;;5096056;27;20796;-40
2023/07/04 09:11:35;;;;;;;7.80;2.60;;;20.50;99.90;;;;;;5078470;28;20039;-40
2023/07/04 09:14:18;;;;;;;9.38;2.97;;;20.70;99.90;;;;;;5077445;28;20066;-40
2023/07/04 09:16:47;;;;;;;;;;;20.70;99.90;;;;;;5099222;27;20059;-39
2023/07/04 09:19:17;;;;;;;10.18;3.20;;;20.40;99.90;;;;;;5097526;27;19936;-40
2023/07/04 09:21:44;;;;;;;12.95;3.60;;;20.40;99.90;;;;;;5078789;28;20055;-40
2023/07/04 09:24:11;;;;;;;10.85;3.28;;;20.30;99.90;;;;;;5102691;27;20062;-40
2023/07/04 09:26:55;;;;;;;12.43;3.67;;;20.10;99.90;;;;;;5104431;27;20299;-40
2023/07/04 09:29:24;;;;;;;10.02;2.60;;;20.40;99.90;;;;;;5104722;27;20807;-40
2023/07/04 09:32:00;;;;;;;9.20;3.47;;;20.30;99.90;;;;;;5107566;27;20145;-40
2023/07/04 09:34:36;;;;;;;9.75;2.60;;;20.70;99.90;;;;;;5079433;27;20063;-40
2023/07/04 09:37:10;;;;;;;11.48;2.40;;;20.60;99.90;;;;;;5097851;27;20862;-39
2023/07/04 09:39:56;;;;;;;8.88;3.20;;;20.70;99.90;;;;;;5103752;27;20906;-39
2023/07/04 09:42:32;;;;;;;10.70;3.20;;;20.50;99.90;;;;;;5106165;27;20126;-39
2023/07/04 09:45:05;;;;;;;9.77;2.80;;;20.40;99.90;;;;;;5102413;27;20051;-39
2023/07/04 09:47:32;;;;;;;10.32;2.70;;;20.00;99.90;;;;;;5103621;27;20043;-39
2023/07/04 09:50:09;;;;;;;8.85;2.33;;;19.80;99.90;;;;;;5102526;27;20046;-39
2023/07/04 09:52:35;;;;;;;8.48;2.60;;;19.80;99.90;;;;;;5108588;27;20153;-40
2023/07/04 09:55:25;;;;;;;7.15;2.55;;;20.00;99.90;;;;;;5109197;27;20488;-39
2023/07/04 09:57:51;;;;;;;8.63;2.13;;;20.00;99.90;;;;;;5098897;27;20047;-39
2023/07/04 10:00:25;;;;;;;7.28;2.83;;;19.90;99.90;;;;;;5094710;27;20108;-39
2023/07/04 10:02:55;;;;;;;8.27;2.10;;;19.60;99.90;;;;;;5098509;27;20100;-39
2023/07/04 10:05:35;;;;;;;10.20;2.60;;;19.20;99.90;;;;;;5100098;27;20050;-39
2023/07/04 10:08:05;;;;;;;11.98;3.25;;;19.20;99.90;;;;;;5096143;27;20396;-39
2023/07/04 10:10:34;;;;;;;11.18;2.13;;;19.10;99.90;;;;;;5094906;27;20063;-39
2023/07/04 10:13:00;;;;;;;10.98;2.60;;;19.10;99.90;;;;;;5114832;27;20413;-39
2023/07/04 10:15:36;;;;;;;10.95;2.83;;;19.10;99.90;;;;;;5108817;27;20053;-39
2023/07/04 10:18:06;;;;;;;13.38;2.90;;;19.10;99.90;;;;;;5095302;27;20104;-39
2023/07/04 10:20:39;;;;;;;11.20;2.80;;;19.20;99.90;;;;;;5097548;27;20043;-40
2023/07/04 10:23:05;;;;;;;10.02;2.47;;;19.50;99.90;;;;;;5101659;27;20055;-39
2023/07/04 10:25:33;;;;;;;10.20;2.80;;;19.70;99.90;;;;;;5099456;27;20064;-39
2023/07/04 10:28:11;;;;;;;8.50;3.03;;;19.80;99.90;;;;;;5096980;27;20109;-40
2023/07/04 10:30:39;;;;;;;8.38;2.50;;;20.00;99.90;;;;;;5097194;27;20100;-40
2023/07/04 10:33:44;;;;;;;11.68;2.85;;;20.20;99.90;;;;;;5079751;27;20130;-40
2023/07/04 10:36:14;;;;;;;11.88;2.95;;;20.70;99.90;;;;;;5104162;27;20130;-40
2023/07/04 10:38:50;;;;;;;11.18;3.00;;;21.00;99.90;;;;;;5099015;27;20144;-40
2023/07/04 10:41:48;;;;;;;9.93;3.28;;;21.10;99.90;;;;;;5095677;27;20548;-40
2023/07/04 10:44:21;;;;;;;8.82;3.38;;;20.80;99.90;;;;;;5091268;27;20152;-39
2023/07/04 10:46:57;;;;;;;12.18;3.13;;;20.30;99.90;;;;;;5103269;27;20748;-39
2023/07/04 10:49:26;;;;;;;8.00;2.90;;;20.20;99.90;;;;;;5115579;27;20439;-39
2023/07/04 10:52:00;;;;;;;11.85;3.83;;;20.50;99.90;;;;;;5096843;27;20051;-40
2023/07/04 10:54:25;;;;;;;9.70;2.85;;;20.60;99.90;;;;;;5096369;27;20082;-40
2023/07/04 10:56:58;;;;;;;10.88;3.30;;;20.50;99.90;;;;;;5114365;27;20130;-39
2023/07/04 10:59:32;;;;;;;13.73;4.22;;;20.30;99.90;;;;;;5076730;28;20050;-42
2023/07/04 11:02:11;;;;;;;12.40;3.65;;;20.10;99.90;;;;;;5095596;27;20048;-39
2023/07/04 11:04:39;;;;;;;9.55;2.85;;;19.70;99.90;;;;;;5102786;27;20393;-40
2023/07/04 11:07:19;;;;;;;14.88;3.75;;;19.60;99.90;;;;;;5100531;27;20128;-39
2023/07/04 11:09:46;;;;;;;13.30;3.50;;;19.60;99.90;;;;;;5078911;27;20371;-39
2023/07/04 11:12:16;;;;;;;16.20;3.30;;;19.50;99.90;;;;;;5077056;28;20061;-40
2023/07/04 11:14:44;;;;;;;12.55;3.08;;;19.50;99.90;;;;;;5107442;27;20564;-39
2023/07/04 11:17:15;;;;;;;9.23;2.75;;;19.50;99.90;;;;;;5111278;27;20104;-40
2023/07/04 11:19:56;;;;;;;9.68;2.70;;;19.50;99.90;;;;;;5113132;27;20226;-40
2023/07/04 11:22:37;;;;;;;10.45;3.17;;;19.50;99.90;;;;;;5114125;27;20047;-40
2023/07/04 11:25:41;;;;;;;13.80;3.08;;;19.50;99.90;;;;;;5114119;27;20047;-40
2023/07/04 11:28:47;;;;;;;9.38;3.22;;;19.60;99.90;;;;;;5113298;27;20057;-40
2023/07/04 11:31:18;;;;;;;9.23;2.78;;;19.70;99.90;;;;;;5044877;28;20048;-40
2023/07/04 11:33:53;;;;;;;10.10;3.10;;;19.80;99.90;;;;;;5049363;28;20064;-40
2023/07/04 11:36:28;;;;;;;9.60;2.72;;;20.10;99.90;;;;;;5011311;28;20041;-40
2023/07/04 11:38:58;;;;;;;8.15;3.00;;;20.10;99.90;;;;;;5017626;28;20137;-41
2023/07/04 11:41:37;;;;;;;7.57;3.33;;;20.00;99.90;;;;;;5016722;28;20063;-40
2023/07/04 11:44:20;;;;;;;11.30;3.13;;;20.00;99.90;;;;;;5037765;28;20138;-40
2023/07/04 11:47:05;;;;;;;8.27;3.17;;;20.40;99.90;;;;;;5038373;28;20319;-40
2023/07/04 11:49:33;;;;;;;10.98;2.92;;;20.80;99.90;;;;;;5049560;28;20066;-40
2023/07/04 11:52:25;;;;;;;8.13;2.40;;;21.00;99.90;;;;;;5033052;28;20424;-40
2023/07/04 11:54:58;;;;;;;7.97;2.10;;;21.00;99.90;;;;;;5051120;28;20052;-40
2023/07/04 11:58:03;;;;;;;9.57;2.80;;;20.50;99.90;;;;;;5046661;28;20057;-40
2023/07/04 12:00:38;;;;;;;10.95;2.78;;;20.10;99.90;;;;;;5030823;28;20052;-40
2023/07/04 12:03:22;;;;;;;13.45;3.25;;;20.00;99.90;;;;;;5082096;28;20115;-40
2023/07/04 12:05:57;;;;;;;7.00;2.65;;;20.00;99.90;;;;;;5113736;27;20126;-41
2023/07/04 12:08:45;;;;;;;9.85;3.15;;;20.10;99.90;;;;;;5096281;27;20051;-40
2023/07/04 12:11:39;;;;;;;8.55;2.58;;;20.40;99.90;;;;;;5114262;27;20096;-40
2023/07/04 12:14:06;;;;;;;11.55;3.22;;;20.30;99.90;;;;;;5093224;28;20066;-40
2023/07/04 12:16:33;;;;;;;7.60;2.50;;;20.30;99.90;;;;;;5112781;27;20115;-41
2023/07/04 12:19:04;;;;;;;8.77;3.22;;;20.30;99.90;;;;;;5113531;27;20509;-40
2023/07/04 12:21:29;;;;;;;10.88;2.50;;;20.20;99.90;;;;;;5112790;27;20126;-40
2023/07/04 12:23:55;;;;;;;14.23;2.90;;;20.00;99.90;;;;;;5113543;27;20080;-40
2023/07/04 12:26:22;;;;;;;10.00;2.97;;;19.90;99.90;;;;;;5112474;27;20104;-40
2023/07/04 12:28:48;;;;;;;8.23;2.72;;;19.90;99.90;;;;;;5091016;27;20082;-40
2023/07/04 12:31:17;;;;;;;9.88;2.80;;;20.20;99.90;;;;;;5116698;27;20415;-40
2023/07/04 12:33:44;;;;;;;8.77;2.70;;;20.10;99.90;;;;;;5097511;27;20895;-40
2023/07/04 12:36:16;;;;;;;8.32;3.50;;;20.10;99.90;;;;;;5089154;27;20050;-40
2023/07/04 12:38:45;;;;;;;10.00;3.00;;;20.30;99.90;;;;;;5112600;27;20361;-40
2023/07/04 12:41:20;;;;;;;7.35;2.85;;;20.20;99.90;;;;;;5116556;27;20541;-40
2023/07/04 12:43:59;;;;;;;12.05;3.75;;;20.40;99.90;;;;;;5106541;27;20089;-40
2023/07/04 12:46:25;;;;;;;8.68;2.95;;;20.60;99.40;;;;;;5116089;27;20058;-40
2023/07/04 12:48:51;;;;;;;6.80;2.50;;;20.60;99.40;;;;;;5073954;28;20064;-40
2023/07/04 12:51:21;;;;;;;8.57;2.88;;;20.60;99.40;;;;;;5098692;27;20051;-40
2023/07/04 12:53:47;;;;;;;6.97;2.83;;;20.60;99.90;;;;;;5098278;27;20090;-41
2023/07/04 12:56:15;;;;;;;11.25;2.97;;;20.50;99.50;;;;;;5117494;27;20050;-40
2023/07/04 12:58:45;;;;;;;11.35;3.38;;;20.50;99.60;;;;;;5116891;27;20080;-40